KCRE/CRE METAR and TAF weather

Enter ICAO airport designator
Station Type Date Time Source
KCRE METAR 2021/07/24 18:53 UTC NOAA

KCRE 241853Z 11008G17KT 090V150 10SM CLR 29/18 A3010 RMK AO1 SLP194 T02890178


Station Type Date Time Source
KCRE Decoded METAR 2021/07/24 18:53 UTC NOAA

N. MYRTLE BCH.GRAND STRAND, SC, United States (KCRE) 33-49N 078-43W 10M
Jul 24, 2021 - 02:53 PM EDT / 2021.07.24 1853 UTC
Wind: from the ESE (110 degrees) at 9 MPH (8 KT) gusting to 20 MPH (17 KT) (direction variable):0
Visibility: 10 mile(s):0
Sky conditions: clear
Temperature: 84.0 F (28.9 C)
Dew Point: 64.0 F (17.8 C)
Relative Humidity: 51%
Pressure (altimeter): 30.1 in. Hg (1019 hPa)
ob: KCRE 241853Z 11008G17KT 090V150 10SM CLR 29/18 A3010 RMK AO1 SLP194 T02890178
cycle: 19

Station Type Date Time Source
KCRE TAF 2021/07/24 18:30 UTC NOAA

TAF KCRE 241729Z 2418/2518 11010KT P6SM SKC
FM250500 09005KT P6SM FEW150
FM251500 12009KT P6SM FEW040

Example: see airport list